sensor_id;sensor_type;location;lat;lon;timestamp;P1;durP1;ratioP1;P2;durP2;ratioP2
20318;SDS011;10317;47.254;11.314;2024-03-23T00:55:33;1.85;;;1.75;;
20318;SDS011;10317;47.254;11.314;2024-03-23T00:57:59;2.22;;;1.80;;
20318;SDS011;10317;47.254;11.314;2024-03-23T01:00:24;3.17;;;2.17;;
20318;SDS011;10317;47.254;11.314;2024-03-23T01:02:50;3.03;;;2.35;;
20318;SDS011;10317;47.254;11.314;2024-03-23T01:05:16;4.20;;;2.72;;
20318;SDS011;10317;47.254;11.314;2024-03-23T01:07:41;2.08;;;1.83;;
20318;SDS011;10317;47.254;11.314;2024-03-23T01:10:07;3.28;;;2.20;;
20318;SDS011;10317;47.254;11.314;2024-03-23T01:12:33;4.07;;;1.90;;
20318;SDS011;10317;47.254;11.314;2024-03-23T01:14:58;3.05;;;1.90;;
20318;SDS011;10317;47.254;11.314;2024-03-23T01:17:24;2.63;;;2.30;;
20318;SDS011;10317;47.254;11.314;2024-03-23T01:19:50;2.88;;;2.28;;
20318;SDS011;10317;47.254;11.314;2024-03-23T01:22:15;3.47;;;2.03;;
20318;SDS011;10317;47.254;11.314;2024-03-23T01:24:41;2.13;;;2.03;;
20318;SDS011;10317;47.254;11.314;2024-03-23T01:27:07;3.42;;;2.20;;
20318;SDS011;10317;47.254;11.314;2024-03-23T01:29:33;2.47;;;2.10;;
20318;SDS011;10317;47.254;11.314;2024-03-23T01:31:59;2.15;;;2.03;;
20318;SDS011;10317;47.254;11.314;2024-03-23T01:34:25;2.33;;;1.98;;
20318;SDS011;10317;47.254;11.314;2024-03-23T01:36:51;2.63;;;2.42;;
20318;SDS011;10317;47.254;11.314;2024-03-23T01:39:16;2.42;;;2.22;;
20318;SDS011;10317;47.254;11.314;2024-03-23T01:41:42;4.75;;;2.75;;
20318;SDS011;10317;47.254;11.314;2024-03-23T01:44:08;4.78;;;2.47;;
20318;SDS011;10317;47.254;11.314;2024-03-23T01:46:37;3.08;;;2.30;;
20318;SDS011;10317;47.254;11.314;2024-03-23T01:49:06;2.25;;;2.03;;
20318;SDS011;10317;47.254;11.314;2024-03-23T01:51:32;2.40;;;2.30;;
20318;SDS011;10317;47.254;11.314;2024-03-23T01:53:59;5.05;;;2.40;;
20318;SDS011;10317;47.254;11.314;2024-03-23T01:56:32;2.92;;;2.63;;
20318;SDS011;10317;47.254;11.314;2024-03-23T01:59:00;3.10;;;1.77;;
20318;SDS011;10317;47.254;11.314;2024-03-23T02:01:26;4.35;;;2.60;;
20318;SDS011;10317;47.254;11.314;2024-03-23T02:03:52;2.97;;;2.67;;
20318;SDS011;10317;47.254;11.314;2024-03-23T02:06:18;2.63;;;2.42;;
20318;SDS011;10317;47.254;11.314;2024-03-23T02:08:43;3.17;;;2.30;;
20318;SDS011;10317;47.254;11.314;2024-03-23T02:11:09;2.55;;;2.35;;
20318;SDS011;10317;47.254;11.314;2024-03-23T02:13:35;3.83;;;2.72;;
20318;SDS011;10317;47.254;11.314;2024-03-23T02:16:00;2.10;;;2.00;;
20318;SDS011;10317;47.254;11.314;2024-03-23T02:18:26;3.22;;;2.65;;
20318;SDS011;10317;47.254;11.314;2024-03-23T02:20:52;2.45;;;2.25;;
20318;SDS011;10317;47.254;11.314;2024-03-23T02:23:17;3.25;;;2.72;;
20318;SDS011;10317;47.254;11.314;2024-03-23T02:25:43;3.53;;;2.70;;
20318;SDS011;10317;47.254;11.314;2024-03-23T02:28:10;2.97;;;2.65;;
20318;SDS011;10317;47.254;11.314;2024-03-23T02:30:36;3.17;;;2.97;;
20318;SDS011;10317;47.254;11.314;2024-03-23T02:33:02;3.25;;;2.97;;
20318;SDS011;10317;47.254;11.314;2024-03-23T02:35:28;3.88;;;3.50;;
20318;SDS011;10317;47.254;11.314;2024-03-23T02:37:54;2.95;;;2.65;;
20318;SDS011;10317;47.254;11.314;2024-03-23T02:40:22;2.67;;;2.50;;
20318;SDS011;10317;47.254;11.314;2024-03-23T02:42:48;3.08;;;2.85;;
20318;SDS011;10317;47.254;11.314;2024-03-23T02:45:14;3.58;;;3.03;;
20318;SDS011;10317;47.254;11.314;2024-03-23T02:47:39;2.42;;;2.22;;
20318;SDS011;10317;47.254;11.314;2024-03-23T02:50:05;4.35;;;2.63;;
20318;SDS011;10317;47.254;11.314;2024-03-23T02:52:31;3.13;;;2.83;;
20318;SDS011;10317;47.254;11.314;2024-03-23T02:54:57;2.70;;;2.50;;
20318;SDS011;10317;47.254;11.314;2024-03-23T02:57:23;2.70;;;2.50;;
20318;SDS011;10317;47.254;11.314;2024-03-23T02:59:49;2.80;;;2.47;;
20318;SDS011;10317;47.254;11.314;2024-03-23T03:02:15;2.55;;;2.35;;
20318;SDS011;10317;47.254;11.314;2024-03-23T03:04:41;2.88;;;2.70;;
20318;SDS011;10317;47.254;11.314;2024-03-23T03:07:06;2.75;;;2.55;;
20318;SDS011;10317;47.254;11.314;2024-03-23T03:09:32;2.80;;;2.60;;
20318;SDS011;10317;47.254;11.314;2024-03-23T03:12:00;3.47;;;3.00;;
20318;SDS011;10317;47.254;11.314;2024-03-23T03:14:26;3.88;;;2.45;;
20318;SDS011;10317;47.254;11.314;2024-03-23T03:16:53;3.97;;;3.28;;
20318;SDS011;10317;47.254;11.314;2024-03-23T03:19:19;3.20;;;2.70;;
20318;SDS011;10317;47.254;11.314;2024-03-23T03:21:44;3.95;;;2.47;;
20318;SDS011;10317;47.254;11.314;2024-03-23T03:24:10;3.15;;;2.88;;
20318;SDS011;10317;47.254;11.314;2024-03-23T03:26:36;3.20;;;2.90;;
20318;SDS011;10317;47.254;11.314;2024-03-23T03:29:02;4.38;;;2.75;;
20318;SDS011;10317;47.254;11.314;2024-03-23T03:31:28;3.92;;;2.67;;
20318;SDS011;10317;47.254;11.314;2024-03-23T03:33:53;4.70;;;2.97;;
20318;SDS011;10317;47.254;11.314;2024-03-23T03:36:19;2.83;;;2.63;;
20318;SDS011;10317;47.254;11.314;2024-03-23T03:38:45;5.57;;;3.00;;
20318;SDS011;10317;47.254;11.314;2024-03-23T03:41:11;3.80;;;3.53;;
20318;SDS011;10317;47.254;11.314;2024-03-23T03:43:37;3.38;;;2.60;;
20318;SDS011;10317;47.254;11.314;2024-03-23T03:46:03;2.78;;;2.58;;
20318;SDS011;10317;47.254;11.314;2024-03-23T03:48:29;2.78;;;2.53;;
20318;SDS011;10317;47.254;11.314;2024-03-23T03:50:54;2.58;;;2.42;;
20318;SDS011;10317;47.254;11.314;2024-03-23T03:53:20;2.60;;;2.42;;
20318;SDS011;10317;47.254;11.314;2024-03-23T03:55:46;4.05;;;2.85;;
20318;SDS011;10317;47.254;11.314;2024-03-23T03:58:11;2.72;;;2.28;;
20318;SDS011;10317;47.254;11.314;2024-03-23T04:00:37;3.20;;;3.00;;
20318;SDS011;10317;47.254;11.314;2024-03-23T04:03:03;3.05;;;2.53;;
20318;SDS011;10317;47.254;11.314;2024-03-23T04:05:29;2.83;;;2.50;;
20318;SDS011;10317;47.254;11.314;2024-03-23T04:07:54;3.25;;;2.90;;
20318;SDS011;10317;47.254;11.314;2024-03-23T04:10:20;3.08;;;2.78;;
20318;SDS011;10317;47.254;11.314;2024-03-23T04:12:46;4.65;;;2.92;;
20318;SDS011;10317;47.254;11.314;2024-03-23T04:15:13;4.50;;;2.83;;
20318;SDS011;10317;47.254;11.314;2024-03-23T04:17:39;3.28;;;3.00;;
20318;SDS011;10317;47.254;11.314;2024-03-23T04:20:06;2.58;;;2.38;;
20318;SDS011;10317;47.254;11.314;2024-03-23T04:22:34;2.92;;;2.72;;
20318;SDS011;10317;47.254;11.314;2024-03-23T04:25:00;3.40;;;2.90;;
20318;SDS011;10317;47.254;11.314;2024-03-23T04:27:31;3.38;;;2.88;;
20318;SDS011;10317;47.254;11.314;2024-03-23T04:30:00;5.10;;;3.25;;
20318;SDS011;10317;47.254;11.314;2024-03-23T04:32:27;3.40;;;2.78;;
20318;SDS011;10317;47.254;11.314;2024-03-23T04:34:53;4.70;;;2.90;;
20318;SDS011;10317;47.254;11.314;2024-03-23T04:37:19;2.95;;;2.70;;
20318;SDS011;10317;47.254;11.314;2024-03-23T04:39:48;2.97;;;2.78;;
20318;SDS011;10317;47.254;11.314;2024-03-23T04:42:15;3.05;;;2.72;;
20318;SDS011;10317;47.254;11.314;2024-03-23T04:44:41;2.80;;;2.42;;
20318;SDS011;10317;47.254;11.314;2024-03-23T04:47:07;4.63;;;2.90;;
20318;SDS011;10317;47.254;11.314;2024-03-23T04:49:33;3.17;;;2.83;;
20318;SDS011;10317;47.254;11.314;2024-03-23T04:52:01;4.03;;;2.97;;
20318;SDS011;10317;47.254;11.314;2024-03-23T04:54:28;2.63;;;2.42;;
20318;SDS011;10317;47.254;11.314;2024-03-23T04:56:54;3.05;;;2.78;;
20318;SDS011;10317;47.254;11.314;2024-03-23T04:59:19;4.57;;;3.00;;
20318;SDS011;10317;47.254;11.314;2024-03-23T05:01:45;5.72;;;2.50;;
20318;SDS011;10317;47.254;11.314;2024-03-23T05:04:11;3.00;;;2.80;;
20318;SDS011;10317;47.254;11.314;2024-03-23T05:06:36;4.07;;;2.50;;
20318;SDS011;10317;47.254;11.314;2024-03-23T05:09:02;3.55;;;2.80;;
20318;SDS011;10317;47.254;11.314;2024-03-23T05:11:32;3.33;;;2.80;;
20318;SDS011;10317;47.254;11.314;2024-03-23T05:13:58;3.65;;;2.50;;
20318;SDS011;10317;47.254;11.314;2024-03-23T05:16:24;2.47;;;2.38;;
20318;SDS011;10317;47.254;11.314;2024-03-23T05:18:49;3.00;;;2.78;;
20318;SDS011;10317;47.254;11.314;2024-03-23T05:21:15;4.65;;;2.17;;
20318;SDS011;10317;47.254;11.314;2024-03-23T05:23:41;3.08;;;2.88;;
20318;SDS011;10317;47.254;11.314;2024-03-23T05:26:08;3.33;;;3.03;;
20318;SDS011;10317;47.254;11.314;2024-03-23T05:28:34;4.72;;;2.58;;
20318;SDS011;10317;47.254;11.314;2024-03-23T05:31:00;2.47;;;2.35;;
20318;SDS011;10317;47.254;11.314;2024-03-23T05:33:25;4.38;;;2.92;;
20318;SDS011;10317;47.254;11.314;2024-03-23T05:35:58;5.82;;;2.47;;
20318;SDS011;10317;47.254;11.314;2024-03-23T05:38:25;3.10;;;2.90;;
20318;SDS011;10317;47.254;11.314;2024-03-23T05:40:57;2.53;;;2.28;;
20318;SDS011;10317;47.254;11.314;2024-03-23T05:43:24;4.30;;;2.60;;
20318;SDS011;10317;47.254;11.314;2024-03-23T05:45:54;2.55;;;2.45;;
20318;SDS011;10317;47.254;11.314;2024-03-23T05:48:25;2.83;;;2.63;;
20318;SDS011;10317;47.254;11.314;2024-03-23T05:50:51;5.50;;;2.90;;
20318;SDS011;10317;47.254;11.314;2024-03-23T05:53:17;4.07;;;2.90;;
20318;SDS011;10317;47.254;11.314;2024-03-23T05:55:45;3.58;;;2.60;;
20318;SDS011;10317;47.254;11.314;2024-03-23T05:58:12;2.63;;;2.42;;
20318;SDS011;10317;47.254;11.314;2024-03-23T06:00:40;3.10;;;2.53;;
20318;SDS011;10317;47.254;11.314;2024-03-23T06:03:06;3.75;;;3.05;;
20318;SDS011;10317;47.254;11.314;2024-03-23T06:05:32;4.18;;;2.65;;
20318;SDS011;10317;47.254;11.314;2024-03-23T06:07:58;2.90;;;2.60;;
20318;SDS011;10317;47.254;11.314;2024-03-23T06:10:23;3.40;;;3.00;;
20318;SDS011;10317;47.254;11.314;2024-03-23T06:12:49;2.95;;;2.60;;
20318;SDS011;10317;47.254;11.314;2024-03-23T06:15:17;4.18;;;2.80;;
20318;SDS011;10317;47.254;11.314;2024-03-23T06:17:43;3.00;;;2.50;;
20318;SDS011;10317;47.254;11.314;2024-03-23T06:20:09;3.25;;;2.97;;
20318;SDS011;10317;47.254;11.314;2024-03-23T06:22:35;2.72;;;2.45;;
20318;SDS011;10317;47.254;11.314;2024-03-23T06:25:01;3.30;;;2.58;;
20318;SDS011;10317;47.254;11.314;2024-03-23T06:27:27;2.80;;;2.60;;
20318;SDS011;10317;47.254;11.314;2024-03-23T06:29:52;2.88;;;2.35;;
20318;SDS011;10317;47.254;11.314;2024-03-23T06:32:18;2.92;;;2.67;;
20318;SDS011;10317;47.254;11.314;2024-03-23T06:34:44;2.90;;;2.70;;
20318;SDS011;10317;47.254;11.314;2024-03-23T06:37:10;2.80;;;2.58;;
20318;SDS011;10317;47.254;11.314;2024-03-23T06:39:36;2.33;;;2.22;;
20318;SDS011;10317;47.254;11.314;2024-03-23T06:42:02;2.22;;;2.08;;
20318;SDS011;10317;47.254;11.314;2024-03-23T06:44:28;2.13;;;1.98;;
20318;SDS011;10317;47.254;11.314;2024-03-23T06:46:55;4.32;;;2.22;;
20318;SDS011;10317;47.254;11.314;2024-03-23T06:49:21;3.92;;;2.13;;
20318;SDS011;10317;47.254;11.314;2024-03-23T06:51:47;2.20;;;1.90;;
20318;SDS011;10317;47.254;11.314;2024-03-23T06:54:13;4.97;;;2.30;;
20318;SDS011;10317;47.254;11.314;2024-03-23T06:56:39;2.45;;;2.30;;
20318;SDS011;10317;47.254;11.314;2024-03-23T06:59:05;2.45;;;2.25;;
20318;SDS011;10317;47.254;11.314;2024-03-23T07:01:31;3.88;;;2.40;;
20318;SDS011;10317;47.254;11.314;2024-03-23T07:03:57;2.42;;;2.30;;
20318;SDS011;10317;47.254;11.314;2024-03-23T07:06:23;2.50;;;2.30;;
20318;SDS011;10317;47.254;11.314;2024-03-23T07:08:48;2.95;;;2.58;;
20318;SDS011;10317;47.254;11.314;2024-03-23T07:11:23;2.50;;;2.30;;
20318;SDS011;10317;47.254;11.314;2024-03-23T07:13:49;3.33;;;2.15;;
20318;SDS011;10317;47.254;11.314;2024-03-23T07:16:16;2.45;;;2.28;;
20318;SDS011;10317;47.254;11.314;2024-03-23T07:18:42;2.63;;;2.42;;
20318;SDS011;10317;47.254;11.314;2024-03-23T07:21:08;5.97;;;2.53;;
20318;SDS011;10317;47.254;11.314;2024-03-23T07:23:33;4.20;;;2.10;;
20318;SDS011;10317;47.254;11.314;2024-03-23T07:25:59;4.88;;;2.45;;
20318;SDS011;10317;47.254;11.314;2024-03-23T07:28:26;2.35;;;2.03;;
20318;SDS011;10317;47.254;11.314;2024-03-23T07:33:28;2.08;;;1.95;;
20318;SDS011;10317;47.254;11.314;2024-03-23T07:35:54;2.58;;;2.38;;
20318;SDS011;10317;47.254;11.314;2024-03-23T07:38:20;2.60;;;2.40;;
20318;SDS011;10317;47.254;11.314;2024-03-23T07:40:46;2.03;;;1.92;;
20318;SDS011;10317;47.254;11.314;2024-03-23T07:43:13;2.80;;;2.60;;
20318;SDS011;10317;47.254;11.314;2024-03-23T07:45:38;2.45;;;2.03;;
20318;SDS011;10317;47.254;11.314;2024-03-23T07:48:04;3.28;;;1.92;;
20318;SDS011;10317;47.254;11.314;2024-03-23T07:50:30;2.53;;;1.70;;
20318;SDS011;10317;47.254;11.314;2024-03-23T07:52:55;1.70;;;1.60;;
20318;SDS011;10317;47.254;11.314;2024-03-23T07:55:21;2.20;;;1.55;;
20318;SDS011;10317;47.254;11.314;2024-03-23T07:57:47;2.92;;;1.63;;
20318;SDS011;10317;47.254;11.314;2024-03-23T08:00:13;1.30;;;1.20;;
20318;SDS011;10317;47.254;11.314;2024-03-23T08:02:39;1.15;;;1.13;;
20318;SDS011;10317;47.254;11.314;2024-03-23T08:05:05;1.48;;;1.05;;
20318;SDS011;10317;47.254;11.314;2024-03-23T08:07:32;6.50;;;1.42;;
20318;SDS011;10317;47.254;11.314;2024-03-23T08:09:58;31.13;;;3.60;;
20318;SDS011;10317;47.254;11.314;2024-03-23T08:12:24;0.98;;;0.98;;
20318;SDS011;10317;47.254;11.314;2024-03-23T08:14:50;0.90;;;0.90;;
20318;SDS011;10317;47.254;11.314;2024-03-23T08:17:15;1.88;;;1.50;;
20318;SDS011;10317;47.254;11.314;2024-03-23T08:19:41;4.25;;;1.27;;
20318;SDS011;10317;47.254;11.314;2024-03-23T08:22:07;3.92;;;1.00;;
20318;SDS011;10317;47.254;11.314;2024-03-23T08:24:34;0.95;;;0.95;;
20318;SDS011;10317;47.254;11.314;2024-03-23T08:26:59;1.77;;;1.20;;
20318;SDS011;10317;47.254;11.314;2024-03-23T08:29:25;0.95;;;0.95;;
20318;SDS011;10317;47.254;11.314;2024-03-23T08:31:51;1.80;;;0.93;;
20318;SDS011;10317;47.254;11.314;2024-03-23T08:34:17;0.90;;;0.90;;
20318;SDS011;10317;47.254;11.314;2024-03-23T08:36:42;0.90;;;0.90;;
20318;SDS011;10317;47.254;11.314;2024-03-23T08:39:08;1.27;;;0.80;;
20318;SDS011;10317;47.254;11.314;2024-03-23T08:41:34;0.95;;;0.95;;
20318;SDS011;10317;47.254;11.314;2024-03-23T08:43:59;0.90;;;0.90;;
20318;SDS011;10317;47.254;11.314;2024-03-23T08:46:25;0.55;;;0.55;;
20318;SDS011;10317;47.254;11.314;2024-03-23T08:48:51;3.90;;;1.27;;
20318;SDS011;10317;47.254;11.314;2024-03-23T08:51:18;1.10;;;0.80;;
20318;SDS011;10317;47.254;11.314;2024-03-23T08:53:43;1.02;;;0.90;;
20318;SDS011;10317;47.254;11.314;2024-03-23T08:56:10;0.80;;;0.80;;
20318;SDS011;10317;47.254;11.314;2024-03-23T08:58:37;3.25;;;0.95;;
20318;SDS011;10317;47.254;11.314;2024-03-23T09:01:07;0.90;;;0.90;;
20318;SDS011;10317;47.254;11.314;2024-03-23T09:03:34;0.85;;;0.80;;
20318;SDS011;10317;47.254;11.314;2024-03-23T09:06:00;1.55;;;1.08;;
20318;SDS011;10317;47.254;11.314;2024-03-23T09:08:27;1.75;;;0.90;;
20318;SDS011;10317;47.254;11.314;2024-03-23T09:10:53;0.70;;;0.70;;
20318;SDS011;10317;47.254;11.314;2024-03-23T09:13:19;1.88;;;1.10;;
20318;SDS011;10317;47.254;11.314;2024-03-23T09:15:46;0.90;;;0.90;;
20318;SDS011;10317;47.254;11.314;2024-03-23T09:18:13;1.08;;;1.08;;
20318;SDS011;10317;47.254;11.314;2024-03-23T09:20:39;1.05;;;0.93;;
20318;SDS011;10317;47.254;11.314;2024-03-23T09:23:04;0.93;;;0.93;;
20318;SDS011;10317;47.254;11.314;2024-03-23T09:25:30;1.00;;;1.00;;
20318;SDS011;10317;47.254;11.314;2024-03-23T09:27:56;2.20;;;1.17;;
20318;SDS011;10317;47.254;11.314;2024-03-23T09:30:21;0.95;;;0.95;;
20318;SDS011;10317;47.254;11.314;2024-03-23T09:32:47;1.08;;;1.00;;
20318;SDS011;10317;47.254;11.314;2024-03-23T09:35:13;1.25;;;1.15;;
20318;SDS011;10317;47.254;11.314;2024-03-23T09:37:39;0.90;;;0.90;;
20318;SDS011;10317;47.254;11.314;2024-03-23T09:40:10;0.90;;;0.90;;
20318;SDS011;10317;47.254;11.314;2024-03-23T09:42:36;0.80;;;0.80;;
20318;SDS011;10317;47.254;11.314;2024-03-23T09:45:05;2.83;;;1.20;;
20318;SDS011;10317;47.254;11.314;2024-03-23T09:47:35;1.15;;;1.15;;
20318;SDS011;10317;47.254;11.314;2024-03-23T09:50:02;1.00;;;1.00;;
20318;SDS011;10317;47.254;11.314;2024-03-23T09:52:29;1.10;;;1.10;;
20318;SDS011;10317;47.254;11.314;2024-03-23T09:54:56;3.53;;;1.42;;
20318;SDS011;10317;47.254;11.314;2024-03-23T09:57:22;7.55;;;1.25;;
20318;SDS011;10317;47.254;11.314;2024-03-23T09:59:47;0.90;;;0.90;;
20318;SDS011;10317;47.254;11.314;2024-03-23T10:02:15;3.83;;;1.10;;
20318;SDS011;10317;47.254;11.314;2024-03-23T10:04:42;1.00;;;1.00;;
20318;SDS011;10317;47.254;11.314;2024-03-23T10:07:19;1.55;;;1.10;;
20318;SDS011;10317;47.254;11.314;2024-03-23T10:09:45;1.35;;;1.30;;
20318;SDS011;10317;47.254;11.314;2024-03-23T10:12:18;2.10;;;1.08;;
20318;SDS011;10317;47.254;11.314;2024-03-23T10:14:44;5.40;;;1.40;;
20318;SDS011;10317;47.254;11.314;2024-03-23T10:19:49;2.15;;;1.20;;
20318;SDS011;10317;47.254;11.314;2024-03-23T10:22:20;2.15;;;1.10;;
20318;SDS011;10317;47.254;11.314;2024-03-23T10:24:47;2.63;;;1.20;;
20318;SDS011;10317;47.254;11.314;2024-03-23T10:27:17;1.30;;;1.13;;
20318;SDS011;10317;47.254;11.314;2024-03-23T10:29:44;1.08;;;1.08;;
20318;SDS011;10317;47.254;11.314;2024-03-23T10:32:14;1.30;;;1.20;;
20318;SDS011;10317;47.254;11.314;2024-03-23T10:34:41;1.27;;;1.17;;
20318;SDS011;10317;47.254;11.314;2024-03-23T10:37:07;2.70;;;1.20;;
20318;SDS011;10317;47.254;11.314;2024-03-23T10:39:42;1.35;;;1.25;;
20318;SDS011;10317;47.254;11.314;2024-03-23T10:42:08;1.17;;;1.17;;
20318;SDS011;10317;47.254;11.314;2024-03-23T10:44:38;3.53;;;1.40;;
20318;SDS011;10317;47.254;11.314;2024-03-23T10:47:04;1.17;;;1.17;;
20318;SDS011;10317;47.254;11.314;2024-03-23T10:49:31;1.50;;;1.40;;
20318;SDS011;10317;47.254;11.314;2024-03-23T10:51:58;1.40;;;1.20;;
20318;SDS011;10317;47.254;11.314;2024-03-23T10:54:25;1.45;;;1.30;;
20318;SDS011;10317;47.254;11.314;2024-03-23T10:56:59;1.10;;;1.10;;
20318;SDS011;10317;47.254;11.314;2024-03-23T10:59:33;1.92;;;1.20;;
20318;SDS011;10317;47.254;11.314;2024-03-23T11:02:02;1.45;;;1.08;;
20318;SDS011;10317;47.254;11.314;2024-03-23T11:04:33;1.17;;;1.17;;
20318;SDS011;10317;47.254;11.314;2024-03-23T11:07:02;1.40;;;1.30;;
20318;SDS011;10317;47.254;11.314;2024-03-23T11:14:48;1.23;;;1.17;;
20318;SDS011;10317;47.254;11.314;2024-03-23T11:17:25;1.08;;;1.00;;
20318;SDS011;10317;47.254;11.314;2024-03-23T11:20:02;0.68;;;0.68;;
20318;SDS011;10317;47.254;11.314;2024-03-23T11:25:14;0.43;;;0.43;;
20318;SDS011;10317;47.254;11.314;2024-03-23T11:27:40;0.45;;;0.45;;
20318;SDS011;10317;47.254;11.314;2024-03-23T11:30:10;0.65;;;0.40;;
20318;SDS011;10317;47.254;11.314;2024-03-23T11:32:41;1.23;;;0.50;;
20318;SDS011;10317;47.254;11.314;2024-03-23T11:35:07;0.57;;;0.57;;
20318;SDS011;10317;47.254;11.314;2024-03-23T11:37:35;0.85;;;0.60;;
20318;SDS011;10317;47.254;11.314;2024-03-23T11:40:16;0.50;;;0.50;;
20318;SDS011;10317;47.254;11.314;2024-03-23T11:42:42;1.52;;;0.52;;
20318;SDS011;10317;47.254;11.314;2024-03-23T11:45:08;0.60;;;0.60;;
20318;SDS011;10317;47.254;11.314;2024-03-23T11:47:34;0.40;;;0.35;;
20318;SDS011;10317;47.254;11.314;2024-03-23T11:50:00;0.52;;;0.40;;
20318;SDS011;10317;47.254;11.314;2024-03-23T11:52:26;0.40;;;0.40;;
20318;SDS011;10317;47.254;11.314;2024-03-23T11:54:51;0.22;;;0.20;;
20318;SDS011;10317;47.254;11.314;2024-03-23T11:57:28;0.30;;;0.30;;
20318;SDS011;10317;47.254;11.314;2024-03-23T11:59:55;0.40;;;0.40;;
20318;SDS011;10317;47.254;11.314;2024-03-23T12:02:20;0.38;;;0.38;;
20318;SDS011;10317;47.254;11.314;2024-03-23T12:04:46;0.40;;;0.40;;
20318;SDS011;10317;47.254;11.314;2024-03-23T12:07:12;0.60;;;0.60;;
20318;SDS011;10317;47.254;11.314;2024-03-23T12:09:39;2.35;;;0.47;;
20318;SDS011;10317;47.254;11.314;2024-03-23T12:14:34;0.40;;;0.40;;
20318;SDS011;10317;47.254;11.314;2024-03-23T12:17:14;0.77;;;0.45;;
20318;SDS011;10317;47.254;11.314;2024-03-23T12:19:40;1.33;;;0.50;;
20318;SDS011;10317;47.254;11.314;2024-03-23T12:22:07;0.85;;;0.60;;
20318;SDS011;10317;47.254;11.314;2024-03-23T12:24:33;0.40;;;0.40;;
20318;SDS011;10317;47.254;11.314;2024-03-23T12:27:03;0.57;;;0.57;;
20318;SDS011;10317;47.254;11.314;2024-03-23T12:29:30;0.50;;;0.50;;
20318;SDS011;10317;47.254;11.314;2024-03-23T12:32:00;0.50;;;0.50;;
20318;SDS011;10317;47.254;11.314;2024-03-23T12:34:27;0.47;;;0.47;;
20318;SDS011;10317;47.254;11.314;2024-03-23T12:36:53;0.68;;;0.68;;
20318;SDS011;10317;47.254;11.314;2024-03-23T12:39:19;0.50;;;0.50;;
20318;SDS011;10317;47.254;11.314;2024-03-23T12:41:48;0.50;;;0.50;;
20318;SDS011;10317;47.254;11.314;2024-03-23T12:44:14;0.70;;;0.70;;
20318;SDS011;10317;47.254;11.314;2024-03-23T12:46:44;0.60;;;0.60;;
20318;SDS011;10317;47.254;11.314;2024-03-23T12:49:10;0.60;;;0.60;;
20318;SDS011;10317;47.254;11.314;2024-03-23T12:51:36;0.57;;;0.57;;
20318;SDS011;10317;47.254;11.314;2024-03-23T12:54:01;0.65;;;0.65;;
20318;SDS011;10317;47.254;11.314;2024-03-23T12:56:27;0.60;;;0.60;;
20318;SDS011;10317;47.254;11.314;2024-03-23T12:58:53;0.70;;;0.70;;
20318;SDS011;10317;47.254;11.314;2024-03-23T13:01:25;1.85;;;0.77;;
20318;SDS011;10317;47.254;11.314;2024-03-23T13:03:51;0.60;;;0.60;;
20318;SDS011;10317;47.254;11.314;2024-03-23T13:06:17;0.70;;;0.70;;
20318;SDS011;10317;47.254;11.314;2024-03-23T13:08:44;0.52;;;0.52;;
20318;SDS011;10317;47.254;11.314;2024-03-23T13:11:10;0.80;;;0.80;;
20318;SDS011;10317;47.254;11.314;2024-03-23T13:13:37;1.05;;;0.70;;
20318;SDS011;10317;47.254;11.314;2024-03-23T13:16:03;0.60;;;0.60;;
20318;SDS011;10317;47.254;11.314;2024-03-23T13:18:32;1.45;;;0.65;;
20318;SDS011;10317;47.254;11.314;2024-03-23T13:20:58;0.77;;;0.77;;
20318;SDS011;10317;47.254;11.314;2024-03-23T13:23:24;0.75;;;0.75;;
20318;SDS011;10317;47.254;11.314;2024-03-23T13:25:54;0.80;;;0.80;;
20318;SDS011;10317;47.254;11.314;2024-03-23T13:28:20;1.60;;;0.73;;
20318;SDS011;10317;47.254;11.314;2024-03-23T13:30:56;1.55;;;0.80;;
20318;SDS011;10317;47.254;11.314;2024-03-23T13:33:29;0.60;;;0.60;;
20318;SDS011;10317;47.254;11.314;2024-03-23T13:35:57;0.80;;;0.80;;
20318;SDS011;10317;47.254;11.314;2024-03-23T13:38:23;0.70;;;0.70;;
20318;SDS011;10317;47.254;11.314;2024-03-23T13:40:58;0.60;;;0.60;;
20318;SDS011;10317;47.254;11.314;2024-03-23T13:43:25;0.70;;;0.70;;
20318;SDS011;10317;47.254;11.314;2024-03-23T13:45:56;0.70;;;0.70;;
20318;SDS011;10317;47.254;11.314;2024-03-23T13:48:23;0.70;;;0.70;;
20318;SDS011;10317;47.254;11.314;2024-03-23T13:50:59;0.70;;;0.70;;
20318;SDS011;10317;47.254;11.314;2024-03-23T13:53:25;0.77;;;0.77;;
20318;SDS011;10317;47.254;11.314;2024-03-23T13:55:51;0.80;;;0.80;;
20318;SDS011;10317;47.254;11.314;2024-03-23T13:58:18;2.78;;;0.77;;
20318;SDS011;10317;47.254;11.314;2024-03-23T14:00:44;0.80;;;0.80;;
20318;SDS011;10317;47.254;11.314;2024-03-23T14:03:10;0.85;;;0.80;;
20318;SDS011;10317;47.254;11.314;2024-03-23T14:05:37;0.73;;;0.73;;
20318;SDS011;10317;47.254;11.314;2024-03-23T14:08:06;1.20;;;0.88;;
20318;SDS011;10317;47.254;11.314;2024-03-23T14:10:33;0.77;;;0.77;;
20318;SDS011;10317;47.254;11.314;2024-03-23T14:12:58;1.27;;;1.20;;
20318;SDS011;10317;47.254;11.314;2024-03-23T14:15:28;2.28;;;0.95;;
20318;SDS011;10317;47.254;11.314;2024-03-23T14:17:55;0.93;;;0.93;;
20318;SDS011;10317;47.254;11.314;2024-03-23T14:20:21;1.48;;;0.90;;
20318;SDS011;10317;47.254;11.314;2024-03-23T14:22:48;4.75;;;1.60;;
20318;SDS011;10317;47.254;11.314;2024-03-23T14:25:14;1.42;;;1.00;;
20318;SDS011;10317;47.254;11.314;2024-03-23T14:27:39;1.05;;;1.05;;
20318;SDS011;10317;47.254;11.314;2024-03-23T14:30:05;1.25;;;1.25;;
20318;SDS011;10317;47.254;11.314;2024-03-23T14:32:32;1.35;;;1.25;;
20318;SDS011;10317;47.254;11.314;2024-03-23T14:35:02;1.08;;;1.08;;
20318;SDS011;10317;47.254;11.314;2024-03-23T14:37:29;1.25;;;1.10;;
20318;SDS011;10317;47.254;11.314;2024-03-23T14:39:55;1.15;;;1.10;;
20318;SDS011;10317;47.254;11.314;2024-03-23T14:42:21;1.23;;;1.13;;
20318;SDS011;10317;47.254;11.314;2024-03-23T14:44:47;1.52;;;1.45;;
20318;SDS011;10317;47.254;11.314;2024-03-23T14:47:13;1.20;;;1.20;;
20318;SDS011;10317;47.254;11.314;2024-03-23T14:49:38;1.65;;;1.10;;
20318;SDS011;10317;47.254;11.314;2024-03-23T14:52:04;1.35;;;1.25;;
20318;SDS011;10317;47.254;11.314;2024-03-23T14:54:30;1.10;;;1.10;;
20318;SDS011;10317;47.254;11.314;2024-03-23T14:56:56;1.00;;;1.00;;
20318;SDS011;10317;47.254;11.314;2024-03-23T14:59:23;1.40;;;1.30;;
20318;SDS011;10317;47.254;11.314;2024-03-23T15:01:49;1.65;;;1.10;;
20318;SDS011;10317;47.254;11.314;2024-03-23T15:04:15;1.33;;;1.10;;
20318;SDS011;10317;47.254;11.314;2024-03-23T15:06:40;1.67;;;1.10;;
20318;SDS011;10317;47.254;11.314;2024-03-23T15:09:07;1.48;;;1.38;;
20318;SDS011;10317;47.254;11.314;2024-03-23T15:11:36;2.20;;;1.92;;
20318;SDS011;10317;47.254;11.314;2024-03-23T15:14:02;1.40;;;1.30;;
20318;SDS011;10317;47.254;11.314;2024-03-23T15:16:28;1.27;;;1.25;;
20318;SDS011;10317;47.254;11.314;2024-03-23T15:18:53;1.45;;;1.20;;
20318;SDS011;10317;47.254;11.314;2024-03-23T15:21:19;1.60;;;1.50;;
20318;SDS011;10317;47.254;11.314;2024-03-23T15:23:46;1.80;;;1.70;;
20318;SDS011;10317;47.254;11.314;2024-03-23T15:26:12;1.92;;;1.58;;
20318;SDS011;10317;47.254;11.314;2024-03-23T15:28:38;1.70;;;1.60;;
20318;SDS011;10317;47.254;11.314;2024-03-23T15:31:19;3.92;;;1.35;;
20318;SDS011;10317;47.254;11.314;2024-03-23T15:33:45;1.60;;;1.50;;
20318;SDS011;10317;47.254;11.314;2024-03-23T15:36:10;1.98;;;1.38;;
20318;SDS011;10317;47.254;11.314;2024-03-23T15:38:37;2.17;;;1.40;;
20318;SDS011;10317;47.254;11.314;2024-03-23T15:41:03;1.70;;;1.60;;